createdAt,value
2017-11-19T00:00:38.652Z,18.40
2017-11-19T00:01:43.871Z,18.40
2017-11-19T00:02:49.214Z,18.40
2017-11-19T00:03:54.937Z,18.40
2017-11-19T00:05:00.275Z,18.40
2017-11-19T00:06:06.009Z,18.40
2017-11-19T00:07:11.236Z,18.40
2017-11-19T00:08:17.295Z,18.40
2017-11-19T00:09:23.123Z,18.40
2017-11-19T00:10:28.454Z,18.40
2017-11-19T00:11:34.553Z,18.40
2017-11-19T00:12:40.582Z,18.40
2017-11-19T00:13:46.511Z,18.40
2017-11-19T00:14:52.145Z,18.40
2017-11-19T00:15:58.226Z,18.40
2017-11-19T00:17:04.335Z,18.40
2017-11-19T00:18:10.060Z,18.40
2017-11-19T00:19:16.651Z,18.40
2017-11-19T00:20:22.427Z,18.40
2017-11-19T00:21:29.258Z,18.30
2017-11-19T00:22:35.078Z,18.40
2017-11-19T00:23:40.656Z,18.30
2017-11-19T00:24:46.444Z,18.30
2017-11-19T00:25:52.069Z,18.30
2017-11-19T00:26:57.768Z,18.30
2017-11-19T00:28:03.786Z,18.30
2017-11-19T00:29:09.468Z,18.40
2017-11-19T00:30:14.971Z,18.40
2017-11-19T00:31:20.660Z,18.30
2017-11-19T00:32:26.720Z,18.30
2017-11-19T00:33:31.845Z,18.40
2017-11-19T00:34:37.123Z,18.30
2017-11-19T00:35:42.394Z,18.30
2017-11-19T00:36:47.427Z,18.30
2017-11-19T00:37:52.496Z,18.30
2017-11-19T00:38:57.708Z,18.30
2017-11-19T00:40:02.690Z,18.30
2017-11-19T00:41:07.480Z,18.30
2017-11-19T00:42:12.807Z,18.30
2017-11-19T00:43:17.908Z,18.30
2017-11-19T00:44:23.512Z,18.30
2017-11-19T00:45:28.400Z,18.30
2017-11-19T00:46:33.349Z,18.30
2017-11-19T00:47:38.290Z,18.30
2017-11-19T00:48:43.571Z,18.30
2017-11-19T00:49:48.667Z,18.20
2017-11-19T00:50:53.515Z,18.20
2017-11-19T00:51:58.404Z,18.20
2017-11-19T00:53:03.442Z,18.20
2017-11-19T00:54:08.311Z,18.20
2017-11-19T00:55:13.094Z,18.20
2017-11-19T00:56:17.955Z,18.20
2017-11-19T00:57:22.979Z,18.20
2017-11-19T00:58:27.949Z,18.20
2017-11-19T00:59:33.002Z,18.20
2017-11-19T01:00:37.932Z,18.20
2017-11-19T01:01:42.969Z,18.20
2017-11-19T01:02:47.808Z,18.20
2017-11-19T01:03:52.861Z,18.20
2017-11-19T01:04:58.141Z,18.20
2017-11-19T01:06:03.146Z,18.20
2017-11-19T01:07:08.159Z,18.20
2017-11-19T01:08:13.182Z,18.20
2017-11-19T01:09:18.220Z,18.20
2017-11-19T01:10:23.118Z,18.20
2017-11-19T01:11:28.123Z,18.20
2017-11-19T01:12:33.059Z,18.20
2017-11-19T01:13:37.900Z,18.20
2017-11-19T01:14:42.783Z,18.20
2017-11-19T01:15:47.808Z,18.20
2017-11-19T01:16:53.132Z,18.20
2017-11-19T01:17:58.249Z,18.20
2017-11-19T01:19:03.204Z,18.20
2017-11-19T01:20:08.270Z,18.20
2017-11-19T01:21:13.444Z,18.20
2017-11-19T01:22:18.251Z,18.20
2017-11-19T01:23:23.103Z,18.20
2017-11-19T01:24:28.118Z,18.20
2017-11-19T01:25:32.924Z,18.20
2017-11-19T01:26:37.946Z,18.20
2017-11-19T01:27:42.876Z,18.20
2017-11-19T01:28:47.827Z,18.20
2017-11-19T01:29:52.676Z,18.20
2017-11-19T01:30:57.368Z,18.20
2017-11-19T01:32:02.426Z,18.20
2017-11-19T01:33:07.587Z,18.20
2017-11-19T01:34:12.714Z,18.20
2017-11-19T01:35:17.465Z,18.20
2017-11-19T01:36:22.595Z,18.20
2017-11-19T01:37:27.593Z,18.20
2017-11-19T01:38:32.779Z,18.20
2017-11-19T01:39:37.963Z,18.20
2017-11-19T01:40:43.053Z,18.20
2017-11-19T01:41:48.174Z,18.20
2017-11-19T01:42:53.098Z,18.10
2017-11-19T01:43:58.084Z,18.20
2017-11-19T01:45:03.128Z,18.20
2017-11-19T01:46:08.214Z,18.20
2017-11-19T01:47:13.381Z,18.20
2017-11-19T01:48:18.488Z,18.20
2017-11-19T01:49:23.667Z,18.20
2017-11-19T01:50:28.821Z,18.20
2017-11-19T01:51:33.956Z,18.20
2017-11-19T01:52:39.048Z,18.20
2017-11-19T01:53:44.019Z,18.20
2017-11-19T01:54:49.098Z,18.20
2017-11-19T01:55:54.054Z,18.20
2017-11-19T01:56:58.934Z,18.20
2017-11-19T01:58:03.847Z,18.20
2017-11-19T01:59:08.911Z,18.20
2017-11-19T02:00:13.967Z,18.20
2017-11-19T02:01:18.937Z,18.20
2017-11-19T02:02:24.382Z,18.20
2017-11-19T02:03:30.655Z,18.20
2017-11-19T02:04:35.872Z,18.20
2017-11-19T02:05:41.430Z,18.20
2017-11-19T02:06:46.691Z,18.20
2017-11-19T02:07:52.364Z,18.20
2017-11-19T02:08:58.558Z,18.20
2017-11-19T02:10:04.699Z,18.20
2017-11-19T02:11:09.660Z,18.20
2017-11-19T02:12:15.807Z,18.20
2017-11-19T02:13:21.270Z,18.20
2017-11-19T02:14:27.981Z,18.20
2017-11-19T02:15:33.584Z,18.20
2017-11-19T02:16:38.598Z,18.20
2017-11-19T02:17:44.538Z,18.20
2017-11-19T02:18:49.570Z,18.20
2017-11-19T02:19:55.787Z,18.20
2017-11-19T02:21:00.550Z,18.20
2017-11-19T02:22:06.526Z,18.20
2017-11-19T02:23:11.455Z,18.20
2017-11-19T02:24:17.115Z,18.20
2017-11-19T02:25:22.414Z,18.20
2017-11-19T02:26:27.489Z,18.20
2017-11-19T02:27:32.744Z,18.20
2017-11-19T02:28:37.866Z,18.20
2017-11-19T02:29:43.764Z,18.20
2017-11-19T02:30:48.992Z,18.20
2017-11-19T02:31:54.934Z,18.20
2017-11-19T02:33:00.029Z,18.20
2017-11-19T02:34:05.807Z,18.20
2017-11-19T02:35:11.076Z,18.20
2017-11-19T02:36:17.177Z,18.20
2017-11-19T02:37:22.173Z,18.20
2017-11-19T02:38:27.603Z,18.20
2017-11-19T02:39:32.820Z,18.20
2017-11-19T02:40:37.672Z,18.20
2017-11-19T02:41:43.057Z,18.20
2017-11-19T02:42:48.134Z,18.20
2017-11-19T02:43:53.525Z,18.20
2017-11-19T02:44:59.342Z,18.20
2017-11-19T02:46:05.294Z,18.20
2017-11-19T02:47:10.301Z,18.20
2017-11-19T02:48:15.994Z,18.20
2017-11-19T02:49:21.115Z,18.20
2017-11-19T02:50:26.552Z,18.20
2017-11-19T02:51:31.596Z,18.20
2017-11-19T02:52:36.926Z,18.20
2017-11-19T02:53:42.329Z,18.20
2017-11-19T02:54:47.368Z,18.10
2017-11-19T02:55:52.544Z,18.10
2017-11-19T02:56:57.612Z,18.20
2017-11-19T02:58:02.733Z,18.10
2017-11-19T02:59:07.560Z,18.20
2017-11-19T03:00:12.539Z,18.10
2017-11-19T03:01:17.712Z,18.10
2017-11-19T03:02:22.705Z,18.10
2017-11-19T03:03:27.760Z,18.20
2017-11-19T03:04:35.861Z,18.10
2017-11-19T03:05:40.764Z,18.10
2017-11-19T03:06:45.750Z,18.10
2017-11-19T03:07:50.548Z,18.10
2017-11-19T03:08:55.452Z,18.10
2017-11-19T03:10:00.810Z,18.10
2017-11-19T03:11:08.115Z,18.10
2017-11-19T03:12:13.123Z,18.10
2017-11-19T03:13:18.025Z,18.10
2017-11-19T03:14:23.078Z,18.10
2017-11-19T03:15:28.044Z,18.10
2017-11-19T03:16:33.003Z,18.10
2017-11-19T03:17:38.205Z,18.10
2017-11-19T03:18:43.133Z,18.10
2017-11-19T03:19:48.268Z,18.10
2017-11-19T03:20:53.512Z,18.10
2017-11-19T03:21:58.521Z,18.10
2017-11-19T03:23:04.551Z,18.00
2017-11-19T03:24:10.178Z,18.00
2017-11-19T03:25:15.203Z,18.00
2017-11-19T03:26:20.284Z,18.00
2017-11-19T03:27:25.287Z,18.00
2017-11-19T03:28:30.322Z,18.00
2017-11-19T03:29:35.456Z,18.10
2017-11-19T03:30:40.208Z,18.00
2017-11-19T03:31:45.177Z,18.00
2017-11-19T03:32:50.248Z,18.00
2017-11-19T03:33:55.268Z,18.00
2017-11-19T03:35:00.249Z,18.00
2017-11-19T03:36:05.578Z,18.00
2017-11-19T03:37:10.708Z,18.00
2017-11-19T03:38:15.867Z,18.00
2017-11-19T03:39:20.836Z,18.00
2017-11-19T03:40:26.061Z,18.00
2017-11-19T03:41:31.194Z,18.00
2017-11-19T03:42:36.326Z,18.00
2017-11-19T03:43:42.170Z,18.00
2017-11-19T03:44:47.427Z,18.00
2017-11-19T03:45:52.793Z,18.00
2017-11-19T03:46:57.974Z,18.00
2017-11-19T03:48:03.215Z,18.00
2017-11-19T03:49:08.544Z,18.00
2017-11-19T03:50:13.627Z,18.00
2017-11-19T03:51:18.692Z,18.00
2017-11-19T03:52:24.172Z,18.00
2017-11-19T03:53:29.213Z,18.00
2017-11-19T03:54:34.103Z,18.00
2017-11-19T03:55:39.118Z,18.00
2017-11-19T03:56:44.125Z,18.00
2017-11-19T03:57:49.231Z,18.00
2017-11-19T03:58:54.611Z,18.00
2017-11-19T03:59:59.691Z,18.00
2017-11-19T04:01:04.823Z,18.00
2017-11-19T04:02:10.836Z,18.00
2017-11-19T04:03:16.071Z,18.00
2017-11-19T04:04:21.027Z,18.00
2017-11-19T04:05:25.893Z,18.00
2017-11-19T04:06:31.133Z,18.00
2017-11-19T04:07:36.173Z,17.90
2017-11-19T04:08:41.174Z,17.90
2017-11-19T04:09:46.556Z,17.90
2017-11-19T04:10:51.628Z,17.90
2017-11-19T04:11:56.640Z,17.90
2017-11-19T04:13:01.716Z,17.90
2017-11-19T04:14:06.495Z,17.90
2017-11-19T04:15:11.737Z,17.90
2017-11-19T04:16:16.924Z,17.90
2017-11-19T04:17:21.812Z,17.90
2017-11-19T04:18:26.978Z,17.90
2017-11-19T04:19:32.146Z,17.90
2017-11-19T04:20:37.454Z,17.90
2017-11-19T04:21:42.446Z,17.90
2017-11-19T04:22:49.004Z,17.90
2017-11-19T04:23:53.898Z,17.90
2017-11-19T04:25:00.618Z,17.90
2017-11-19T04:26:05.997Z,17.90
2017-11-19T04:27:11.217Z,17.90
2017-11-19T04:28:16.619Z,17.90
2017-11-19T04:29:22.181Z,17.90
2017-11-19T04:30:27.400Z,17.90
2017-11-19T04:31:33.076Z,17.90
2017-11-19T04:32:38.279Z,17.90
2017-11-19T04:33:43.321Z,17.90
2017-11-19T04:34:48.297Z,17.90
2017-11-19T04:35:53.260Z,17.90
2017-11-19T04:36:58.148Z,17.90
2017-11-19T04:38:03.386Z,17.90
2017-11-19T04:39:08.379Z,17.90
2017-11-19T04:40:13.581Z,17.90
2017-11-19T04:41:18.831Z,17.90
2017-11-19T04:42:23.711Z,17.90
2017-11-19T04:43:29.003Z,17.90
2017-11-19T04:44:34.119Z,17.90
2017-11-19T04:45:39.758Z,17.90
2017-11-19T04:46:44.727Z,17.90
2017-11-19T04:47:49.860Z,17.90
2017-11-19T04:48:54.883Z,17.90
2017-11-19T04:50:00.005Z,17.90
2017-11-19T04:51:05.219Z,17.90
2017-11-19T04:52:10.116Z,17.90
2017-11-19T04:53:15.189Z,17.90
2017-11-19T04:54:19.960Z,17.90
2017-11-19T04:55:25.453Z,17.90
2017-11-19T04:56:30.175Z,17.90
2017-11-19T04:57:35.843Z,17.90
2017-11-19T04:58:41.129Z,17.90
2017-11-19T04:59:47.013Z,17.90
2017-11-19T05:00:53.127Z,17.90
2017-11-19T05:01:58.342Z,17.90
2017-11-19T05:03:03.613Z,17.90
2017-11-19T05:04:08.598Z,17.90
2017-11-19T05:05:13.668Z,17.90
2017-11-19T05:06:18.709Z,17.90
2017-11-19T05:07:23.520Z,17.90
2017-11-19T05:08:28.615Z,17.90
2017-11-19T05:09:33.322Z,17.90
2017-11-19T05:10:38.277Z,17.90
2017-11-19T05:11:43.271Z,17.90
2017-11-19T05:12:48.393Z,17.90
2017-11-19T05:13:53.637Z,17.90
2017-11-19T05:14:58.701Z,17.90
2017-11-19T05:16:04.300Z,17.90
2017-11-19T05:17:09.297Z,17.90
2017-11-19T05:18:14.054Z,17.80
2017-11-19T05:19:19.504Z,17.80
2017-11-19T05:20:24.760Z,17.90
2017-11-19T05:21:30.053Z,17.90
2017-11-19T05:22:35.001Z,17.80
2017-11-19T05:23:40.017Z,17.80
2017-11-19T05:24:45.085Z,17.80
2017-11-19T05:25:49.979Z,17.80
2017-11-19T05:26:55.124Z,17.80
2017-11-19T05:28:00.156Z,17.80
2017-11-19T05:29:05.380Z,17.80
2017-11-19T05:30:10.410Z,17.80
2017-11-19T05:31:15.588Z,17.80
2017-11-19T05:32:20.547Z,17.80
2017-11-19T05:33:25.292Z,17.80
2017-11-19T05:34:30.410Z,17.80
2017-11-19T05:35:35.437Z,17.80
2017-11-19T05:36:40.502Z,17.80
2017-11-19T05:37:46.784Z,17.80
2017-11-19T05:38:51.732Z,17.80
2017-11-19T05:39:56.885Z,17.80
2017-11-19T05:41:02.135Z,17.80
2017-11-19T05:42:07.149Z,17.80
2017-11-19T05:43:12.322Z,17.80
2017-11-19T05:44:17.390Z,17.80
2017-11-19T05:45:22.384Z,17.80
2017-11-19T05:46:27.295Z,17.80
2017-11-19T05:47:32.413Z,17.80
2017-11-19T05:48:37.240Z,17.80
2017-11-19T05:49:41.995Z,17.80
2017-11-19T05:50:47.207Z,17.80
2017-11-19T05:51:52.109Z,17.80
2017-11-19T05:52:57.354Z,17.80
2017-11-19T05:54:02.920Z,17.80
2017-11-19T05:55:08.297Z,17.80
2017-11-19T05:56:13.394Z,17.80
2017-11-19T05:57:18.313Z,17.80
2017-11-19T05:58:23.363Z,17.80
2017-11-19T05:59:28.266Z,17.80
2017-11-19T06:00:33.297Z,17.80
2017-11-19T06:01:38.261Z,17.80
2017-11-19T06:02:43.416Z,17.80
2017-11-19T06:03:48.311Z,17.80
2017-11-19T06:04:53.285Z,17.80
2017-11-19T06:05:58.268Z,17.80
2017-11-19T06:07:03.244Z,17.80
2017-11-19T06:08:08.039Z,17.80
2017-11-19T06:09:13.684Z,17.80
2017-11-19T06:10:18.500Z,17.80
2017-11-19T06:11:24.382Z,17.80
2017-11-19T06:12:29.306Z,17.70
2017-11-19T06:13:34.287Z,17.80
2017-11-19T06:14:39.493Z,17.80
2017-11-19T06:15:44.839Z,17.80
2017-11-19T06:16:49.669Z,17.80
2017-11-19T06:17:54.483Z,17.70
2017-11-19T06:18:59.459Z,17.70
2017-11-19T06:20:04.588Z,17.70
2017-11-19T06:21:09.652Z,17.80
2017-11-19T06:22:14.599Z,17.70
2017-11-19T06:23:19.399Z,17.70
2017-11-19T06:24:24.312Z,17.70
2017-11-19T06:25:29.111Z,17.70
2017-11-19T06:26:34.343Z,17.80
2017-11-19T06:27:39.776Z,17.80
2017-11-19T06:28:45.018Z,17.80
2017-11-19T06:29:50.270Z,17.80
2017-11-19T06:30:55.160Z,17.70
2017-11-19T06:32:00.010Z,17.80
2017-11-19T06:33:04.990Z,17.80
2017-11-19T06:34:10.268Z,17.80
2017-11-19T06:35:15.128Z,17.80
2017-11-19T06:36:20.111Z,17.80
2017-11-19T06:37:25.186Z,17.80
2017-11-19T06:38:30.168Z,17.80
2017-11-19T06:39:35.095Z,17.80
2017-11-19T06:40:40.146Z,17.80
2017-11-19T06:41:45.120Z,17.90
2017-11-19T06:42:50.348Z,17.90
2017-11-19T06:43:55.298Z,17.90
2017-11-19T06:45:01.319Z,18.00
2017-11-19T06:46:06.604Z,18.10
2017-11-19T06:47:11.637Z,18.20
2017-11-19T06:48:17.530Z,18.20
2017-11-19T06:49:22.737Z,18.30
2017-11-19T06:50:27.960Z,18.40
2017-11-19T06:51:32.977Z,18.50
2017-11-19T06:52:38.046Z,18.60
2017-11-19T06:53:43.082Z,18.70
2017-11-19T06:54:48.029Z,18.80
2017-11-19T06:55:52.870Z,18.90
2017-11-19T06:56:57.633Z,19.00
2017-11-19T06:58:02.947Z,19.10
2017-11-19T06:59:08.089Z,19.20
2017-11-19T07:00:13.105Z,19.20
2017-11-19T07:01:18.340Z,19.40
2017-11-19T07:02:23.563Z,19.40
2017-11-19T07:03:28.523Z,19.50
2017-11-19T07:04:33.932Z,19.50
2017-11-19T07:05:39.086Z,19.60
2017-11-19T07:06:45.144Z,19.60
2017-11-19T07:07:50.081Z,19.70
2017-11-19T07:08:55.330Z,19.70
2017-11-19T07:10:00.312Z,19.80
2017-11-19T07:11:05.410Z,19.80
2017-11-19T07:12:10.505Z,19.80
2017-11-19T07:13:15.520Z,19.80
2017-11-19T07:14:20.635Z,19.80
2017-11-19T07:15:25.603Z,19.80
2017-11-19T07:16:30.627Z,19.70
2017-11-19T07:17:35.738Z,19.60
2017-11-19T07:18:40.617Z,19.60
2017-11-19T07:19:46.001Z,19.60
2017-11-19T07:20:51.773Z,19.60
2017-11-19T07:21:57.592Z,19.60
2017-11-19T07:23:03.204Z,19.60
2017-11-19T07:24:08.190Z,19.60
2017-11-19T07:25:12.954Z,19.60
2017-11-19T07:26:17.720Z,19.60
2017-11-19T07:27:22.800Z,19.60
2017-11-19T07:28:27.573Z,19.60
2017-11-19T07:29:32.713Z,19.60
2017-11-19T07:30:37.863Z,19.60
2017-11-19T07:31:43.120Z,19.60
2017-11-19T07:32:48.245Z,19.60
2017-11-19T07:33:52.966Z,19.60
2017-11-19T07:34:58.060Z,19.60
2017-11-19T07:36:03.291Z,19.60
2017-11-19T07:37:09.512Z,19.60
2017-11-19T07:38:14.647Z,19.70
2017-11-19T07:39:19.500Z,19.70
2017-11-19T07:40:25.423Z,19.70
2017-11-19T07:41:30.475Z,19.70
2017-11-19T07:42:35.471Z,19.60
2017-11-19T07:43:40.804Z,19.60
2017-11-19T07:44:46.004Z,19.60
2017-11-19T07:45:51.622Z,19.60
2017-11-19T07:46:56.596Z,19.60
2017-11-19T07:48:01.532Z,19.60
2017-11-19T07:49:06.705Z,19.60
2017-11-19T07:50:11.793Z,19.60
2017-11-19T07:51:16.578Z,19.60
2017-11-19T07:52:21.889Z,19.60
2017-11-19T07:53:26.878Z,19.60
2017-11-19T07:54:32.137Z,19.50
2017-11-19T07:55:38.246Z,19.50
2017-11-19T07:56:43.584Z,19.50
2017-11-19T07:57:48.836Z,19.50
2017-11-19T07:58:54.313Z,19.50
2017-11-19T07:59:59.272Z,19.40
2017-11-19T08:01:04.211Z,19.40
2017-11-19T08:02:09.158Z,19.40
2017-11-19T08:03:14.178Z,19.40
2017-11-19T08:04:19.319Z,19.40
2017-11-19T08:05:24.235Z,19.40
2017-11-19T08:06:29.486Z,19.30
2017-11-19T08:07:34.692Z,19.30
2017-11-19T08:08:39.758Z,19.30
2017-11-19T08:09:44.802Z,19.30
2017-11-19T08:10:49.864Z,19.30
2017-11-19T08:11:54.884Z,19.30
2017-11-19T08:13:00.037Z,19.30
2017-11-19T08:14:06.083Z,19.30
2017-11-19T08:15:11.931Z,19.30
2017-11-19T08:16:16.952Z,19.30
2017-11-19T08:17:22.378Z,19.30
2017-11-19T08:18:27.535Z,19.20
2017-11-19T08:19:32.453Z,19.20
2017-11-19T08:20:37.506Z,19.20
2017-11-19T08:21:42.686Z,19.20
2017-11-19T08:22:47.716Z,19.20
2017-11-19T08:23:52.833Z,19.20
2017-11-19T08:24:57.679Z,19.20
2017-11-19T08:26:03.059Z,19.20
2017-11-19T08:27:08.144Z,19.10
2017-11-19T08:28:13.123Z,19.10
2017-11-19T08:29:18.057Z,19.10
2017-11-19T08:30:23.864Z,19.10
2017-11-19T08:31:29.246Z,19.10
2017-11-19T08:32:35.601Z,19.10
2017-11-19T08:33:40.951Z,19.10
2017-11-19T08:34:45.997Z,19.10
2017-11-19T08:35:51.256Z,19.00
2017-11-19T08:36:56.679Z,19.00
2017-11-19T08:38:01.936Z,19.00
2017-11-19T08:39:06.897Z,18.90
2017-11-19T08:40:11.935Z,18.90
2017-11-19T08:41:17.274Z,18.90
2017-11-19T08:42:22.497Z,18.90
2017-11-19T08:43:30.884Z,18.90
2017-11-19T08:44:36.407Z,18.90
2017-11-19T08:45:41.882Z,18.80
2017-11-19T08:46:47.102Z,18.80
2017-11-19T08:47:53.516Z,18.80
2017-11-19T08:48:58.520Z,18.80
2017-11-19T08:50:03.877Z,18.80
2017-11-19T08:51:08.966Z,18.80
2017-11-19T08:52:14.106Z,18.80
2017-11-19T08:53:20.215Z,18.80
2017-11-19T08:54:25.690Z,18.80
2017-11-19T08:55:32.368Z,18.90
2017-11-19T08:56:38.874Z,18.90
2017-11-19T08:57:44.806Z,18.90
2017-11-19T08:58:50.453Z,18.90
2017-11-19T08:59:55.621Z,18.90
2017-11-19T09:01:02.135Z,18.90
2017-11-19T09:02:07.357Z,18.90
2017-11-19T09:03:13.636Z,18.90
2017-11-19T09:04:19.048Z,18.90
2017-11-19T09:05:24.083Z,18.90
2017-11-19T09:06:29.417Z,18.90
2017-11-19T09:07:34.609Z,18.90
2017-11-19T09:08:39.950Z,18.90
2017-11-19T09:09:45.294Z,18.90
2017-11-19T09:10:51.053Z,18.90
2017-11-19T09:11:56.209Z,18.90
2017-11-19T09:13:01.675Z,18.90
2017-11-19T09:14:06.996Z,18.90
2017-11-19T09:15:12.468Z,18.90
2017-11-19T09:16:17.609Z,18.90
2017-11-19T09:17:23.197Z,18.90
2017-11-19T09:18:30.382Z,18.90
2017-11-19T09:19:36.307Z,18.90
2017-11-19T09:20:41.802Z,18.90
2017-11-19T09:21:47.070Z,18.90
2017-11-19T09:22:52.052Z,18.90
2017-11-19T09:23:57.314Z,18.90
2017-11-19T09:25:02.899Z,18.90
2017-11-19T09:26:08.033Z,18.90
2017-11-19T09:27:13.168Z,18.90
2017-11-19T09:28:18.398Z,18.90
2017-11-19T09:29:23.743Z,18.90
2017-11-19T09:30:29.739Z,18.90
2017-11-19T09:31:34.810Z,18.90
2017-11-19T09:32:40.118Z,18.90
2017-11-19T09:33:47.512Z,18.90
2017-11-19T09:34:53.417Z,18.90
2017-11-19T09:35:59.049Z,18.90
2017-11-19T09:37:04.404Z,18.90
2017-11-19T09:38:09.558Z,18.90
2017-11-19T09:39:14.802Z,18.90
2017-11-19T09:40:20.105Z,18.90
2017-11-19T09:41:25.251Z,18.90
2017-11-19T09:42:30.526Z,18.90
2017-11-19T09:43:35.615Z,18.90
2017-11-19T09:44:41.143Z,18.90
2017-11-19T09:45:46.274Z,18.90
2017-11-19T09:46:51.633Z,18.90
2017-11-19T09:47:56.840Z,18.80
2017-11-19T09:49:02.481Z,18.90
2017-11-19T09:50:07.850Z,18.90
2017-11-19T09:51:13.044Z,18.90
2017-11-19T09:52:19.713Z,18.90
2017-11-19T09:53:25.013Z,18.90
2017-11-19T09:54:30.059Z,18.80
2017-11-19T09:55:35.480Z,18.90
2017-11-19T09:56:40.723Z,18.80
2017-11-19T09:57:45.817Z,18.80
2017-11-19T09:58:51.071Z,18.80
2017-11-19T09:59:56.388Z,18.80
2017-11-19T10:01:01.604Z,18.80
2017-11-19T10:02:07.018Z,18.80
2017-11-19T10:03:12.321Z,18.80
2017-11-19T10:04:17.694Z,18.80
2017-11-19T10:05:23.171Z,18.90
2017-11-19T10:06:28.906Z,18.90
2017-11-19T10:07:36.269Z,19.00
2017-11-19T10:08:41.931Z,19.10
2017-11-19T10:09:47.342Z,19.20
2017-11-19T10:10:52.695Z,19.20
2017-11-19T10:11:58.317Z,19.20
2017-11-19T10:13:03.409Z,19.10
2017-11-19T10:14:09.278Z,19.10
2017-11-19T10:15:15.098Z,19.00
2017-11-19T10:16:21.452Z,19.00
2017-11-19T10:17:27.601Z,18.90
2017-11-19T10:18:34.830Z,18.90
2017-11-19T10:19:41.624Z,18.90
2017-11-19T10:20:47.885Z,18.90
2017-11-19T10:21:54.437Z,18.90
2017-11-19T10:23:02.382Z,19.00
2017-11-19T10:24:09.046Z,19.00
2017-11-19T10:25:15.592Z,19.00
2017-11-19T10:26:22.379Z,19.10
2017-11-19T10:27:28.306Z,19.10
2017-11-19T10:28:34.573Z,19.10
2017-11-19T10:29:40.296Z,19.10
2017-11-19T10:30:46.099Z,19.20
2017-11-19T10:31:53.109Z,19.20
2017-11-19T10:33:00.066Z,19.20
2017-11-19T10:34:06.406Z,19.20
2017-11-19T10:35:14.509Z,19.20
2017-11-19T10:36:20.290Z,19.10
2017-11-19T10:37:26.540Z,19.20
2017-11-19T10:38:32.848Z,19.20
2017-11-19T10:39:39.149Z,19.20
2017-11-19T10:40:45.074Z,19.20
2017-11-19T10:41:51.733Z,19.20
2017-11-19T10:42:57.456Z,19.20
2017-11-19T10:44:04.003Z,19.20
2017-11-19T10:45:09.784Z,19.30
2017-11-19T10:46:15.753Z,19.30
2017-11-19T10:47:22.750Z,19.30
2017-11-19T10:48:29.141Z,19.30
2017-11-19T10:49:35.744Z,19.30
2017-11-19T10:50:42.196Z,19.30
2017-11-19T10:51:49.906Z,19.20
2017-11-19T10:52:55.712Z,19.30
2017-11-19T10:54:01.646Z,19.20
2017-11-19T10:55:07.897Z,19.20
2017-11-19T10:56:14.214Z,19.20
2017-11-19T10:57:19.854Z,19.20
2017-11-19T10:58:25.643Z,19.30
2017-11-19T10:59:31.159Z,19.20
2017-11-19T11:00:36.752Z,19.20
2017-11-19T11:01:41.975Z,19.20
2017-11-19T11:02:48.537Z,19.30
2017-11-19T11:03:54.545Z,19.30
2017-11-19T11:04:59.958Z,19.30
2017-11-19T11:06:05.818Z,19.30
2017-11-19T11:07:12.288Z,19.30
2017-11-19T11:08:17.998Z,19.30
2017-11-19T11:09:22.955Z,19.30
2017-11-19T11:10:28.292Z,19.30
2017-11-19T11:11:34.087Z,19.30
2017-11-19T11:12:39.496Z,19.20
2017-11-19T11:13:45.175Z,19.20
2017-11-19T11:14:51.251Z,19.20
2017-11-19T11:15:56.653Z,19.20
2017-11-19T11:17:02.393Z,19.20
2017-11-19T11:18:08.599Z,19.20
2017-11-19T11:19:14.248Z,19.20
2017-11-19T11:20:20.076Z,19.20
2017-11-19T11:21:25.799Z,19.10
2017-11-19T11:22:31.354Z,19.10
2017-11-19T11:23:36.978Z,19.10
2017-11-19T11:24:42.709Z,19.10
2017-11-19T11:25:48.545Z,19.10
2017-11-19T11:26:54.263Z,19.10
2017-11-19T11:28:00.010Z,19.10
2017-11-19T11:29:06.060Z,19.10
2017-11-19T11:30:12.573Z,19.00
2017-11-19T11:31:19.403Z,19.00
2017-11-19T11:32:25.560Z,19.10
2017-11-19T11:33:31.930Z,19.10
2017-11-19T11:34:37.793Z,19.00
2017-11-19T11:35:43.281Z,19.00
2017-11-19T11:36:49.128Z,19.00
2017-11-19T11:37:55.355Z,19.00
2017-11-19T11:39:01.246Z,18.80
2017-11-19T11:40:07.105Z,18.60
2017-11-19T11:41:12.029Z,18.40
2017-11-19T11:42:17.264Z,18.30
2017-11-19T11:43:23.264Z,18.20
2017-11-19T11:44:28.577Z,18.10
2017-11-19T11:45:34.134Z,18.00
2017-11-19T11:47:44.171Z,17.90
2017-11-19T11:48:50.324Z,17.90
2017-11-19T11:49:55.895Z,17.90
2017-11-19T11:51:01.551Z,17.90
2017-11-19T11:52:07.020Z,17.80
2017-11-19T11:53:13.901Z,17.80
2017-11-19T11:54:19.656Z,17.80
2017-11-19T11:55:24.684Z,17.70
2017-11-19T11:56:30.096Z,17.70
2017-11-19T11:57:36.497Z,17.70
2017-11-19T11:59:46.940Z,17.70
2017-11-19T12:00:52.671Z,17.60
2017-11-19T12:01:58.036Z,17.60
2017-11-19T12:03:04.371Z,17.60
2017-11-19T12:04:11.165Z,17.60
2017-11-19T12:05:16.524Z,17.60
2017-11-19T12:06:23.146Z,17.60
2017-11-19T12:07:29.096Z,17.60
2017-11-19T12:08:34.868Z,17.70
2017-11-19T12:09:39.656Z,17.60
2017-11-19T12:10:45.224Z,17.60
2017-11-19T12:11:50.905Z,17.60
2017-11-19T12:12:56.839Z,17.60
2017-11-19T12:14:02.012Z,17.60
2017-11-19T12:15:07.533Z,17.60
2017-11-19T12:16:13.083Z,17.60
2017-11-19T12:17:18.320Z,17.60
2017-11-19T12:18:23.854Z,17.60
2017-11-19T12:19:29.421Z,17.60
2017-11-19T12:20:34.576Z,17.70
2017-11-19T12:21:40.446Z,17.60
2017-11-19T12:22:46.986Z,17.60
2017-11-19T12:23:54.989Z,17.70
2017-11-19T12:25:00.442Z,17.70
2017-11-19T12:26:07.746Z,17.70
2017-11-19T12:27:14.624Z,17.70
2017-11-19T12:28:22.161Z,17.70
2017-11-19T12:29:29.635Z,17.70
2017-11-19T12:30:37.651Z,17.70
2017-11-19T12:31:49.474Z,17.70
2017-11-19T12:32:55.669Z,17.70
2017-11-19T12:34:03.330Z,17.70
2017-11-19T12:35:09.800Z,17.70
2017-11-19T12:36:18.109Z,17.70
2017-11-19T12:37:26.317Z,17.70
2017-11-19T12:38:32.193Z,17.70
2017-11-19T12:39:38.530Z,17.70
2017-11-19T12:40:44.968Z,17.70
2017-11-19T12:41:51.244Z,17.70
2017-11-19T12:42:57.669Z,17.70
2017-11-19T12:44:05.750Z,17.70
2017-11-19T12:45:13.894Z,17.60
2017-11-19T12:46:23.425Z,17.70
2017-11-19T12:47:31.306Z,17.60
2017-11-19T12:49:44.736Z,17.60
2017-11-19T12:50:51.993Z,17.60
2017-11-19T12:51:59.244Z,17.60
2017-11-19T12:53:05.708Z,17.60
2017-11-19T12:54:12.089Z,17.60
2017-11-19T12:55:18.408Z,17.60
2017-11-19T12:56:23.688Z,17.60
2017-11-19T12:57:29.216Z,17.50
2017-11-19T12:58:34.321Z,17.50
2017-11-19T12:59:40.186Z,17.50
2017-11-19T13:00:45.640Z,17.50
2017-11-19T13:01:50.798Z,17.40
2017-11-19T13:02:55.793Z,17.50
2017-11-19T13:04:00.969Z,17.40
2017-11-19T13:05:05.998Z,17.40
2017-11-19T13:06:10.718Z,17.40
2017-11-19T13:07:15.845Z,17.40
2017-11-19T13:08:20.696Z,17.40
2017-11-19T13:09:26.140Z,17.40
2017-11-19T13:10:30.908Z,17.40
2017-11-19T13:11:35.665Z,17.40
2017-11-19T13:12:40.856Z,17.40
2017-11-19T13:13:45.645Z,17.40
2017-11-19T13:14:50.738Z,17.30
2017-11-19T13:15:56.259Z,17.30
2017-11-19T13:17:01.085Z,17.30
2017-11-19T13:18:06.765Z,17.30
2017-11-19T13:19:11.453Z,17.30
2017-11-19T13:20:16.353Z,17.40
2017-11-19T13:21:21.298Z,17.30
2017-11-19T13:22:26.315Z,17.30
2017-11-19T13:23:31.969Z,17.30
2017-11-19T13:24:36.661Z,17.30
2017-11-19T13:25:41.827Z,17.30
2017-11-19T13:26:47.312Z,17.30
2017-11-19T13:27:53.313Z,17.30
2017-11-19T13:28:59.910Z,17.30
2017-11-19T13:30:05.704Z,17.30
2017-11-19T13:31:11.642Z,17.30
2017-11-19T13:32:18.476Z,17.30
2017-11-19T13:33:24.836Z,17.30
2017-11-19T13:34:30.870Z,17.30
2017-11-19T13:35:37.043Z,17.30
2017-11-19T13:36:43.318Z,17.30
2017-11-19T13:37:49.393Z,17.40
2017-11-19T13:38:55.949Z,17.40
2017-11-19T13:40:01.939Z,17.40
2017-11-19T13:41:07.789Z,17.50
2017-11-19T13:42:13.750Z,17.50
2017-11-19T13:43:21.199Z,17.60
2017-11-19T13:44:27.165Z,17.60
2017-11-19T13:45:33.213Z,17.60
2017-11-19T13:46:38.968Z,17.60
2017-11-19T13:47:45.012Z,17.70
2017-11-19T13:48:50.671Z,17.70
2017-11-19T13:49:56.757Z,17.70
2017-11-19T13:51:03.621Z,17.70
2017-11-19T13:52:09.174Z,17.70
2017-11-19T13:53:16.164Z,17.70
2017-11-19T13:54:21.990Z,17.70
2017-11-19T13:55:27.866Z,17.70
2017-11-19T13:56:33.296Z,17.80
2017-11-19T13:57:40.059Z,17.80
2017-11-19T13:58:46.398Z,17.90
2017-11-19T13:59:53.983Z,17.90
2017-11-19T14:01:00.526Z,18.00
2017-11-19T14:02:06.612Z,18.00
2017-11-19T14:03:12.539Z,18.00
2017-11-19T14:04:18.702Z,18.10
2017-11-19T14:05:24.224Z,18.10
2017-11-19T14:06:29.913Z,18.20